createdAt,value
2023-03-16T00:00:27.094Z,2.09
2023-03-16T00:01:29.623Z,2.07
2023-03-16T00:02:31.827Z,2.06
2023-03-16T00:03:34.480Z,2.07
2023-03-16T00:04:37.749Z,2.05
2023-03-16T00:05:40.108Z,2.03
2023-03-16T00:06:42.533Z,2.03
2023-03-16T00:07:44.998Z,1.96
2023-03-16T00:08:47.280Z,2.01
2023-03-16T00:09:49.742Z,2.03
2023-03-16T00:10:54.239Z,2.03
2023-03-16T00:12:03.150Z,2.11
2023-03-16T00:13:05.533Z,2.13
2023-03-16T00:14:08.688Z,2.13
2023-03-16T00:15:14.041Z,2.21
2023-03-16T00:16:17.088Z,2.25
2023-03-16T00:17:20.746Z,2.21
2023-03-16T00:18:27.473Z,2.10
2023-03-16T00:19:29.677Z,2.03
2023-03-16T00:20:33.536Z,2.07
2023-03-16T00:21:36.081Z,2.06
2023-03-16T00:22:38.338Z,2.06
2023-03-16T00:23:42.754Z,1.97
2023-03-16T00:24:45.034Z,1.96
2023-03-16T00:25:47.228Z,2.02
2023-03-16T00:26:49.662Z,2.02
2023-03-16T00:27:51.885Z,1.95
2023-03-16T00:28:54.588Z,1.96
2023-03-16T00:29:57.131Z,2.03
2023-03-16T00:30:59.515Z,1.95
2023-03-16T00:32:03.552Z,1.94
2023-03-16T00:33:05.908Z,2.00
2023-03-16T00:34:08.470Z,2.02
2023-03-16T00:35:12.220Z,1.94
2023-03-16T00:36:14.594Z,1.95
2023-03-16T00:37:18.829Z,1.91
2023-03-16T00:38:21.796Z,1.92
2023-03-16T00:39:24.512Z,1.93
2023-03-16T00:40:26.975Z,1.96
2023-03-16T00:41:29.338Z,1.90
2023-03-16T00:42:34.199Z,1.86
2023-03-16T00:43:44.551Z,1.75
2023-03-16T00:44:47.296Z,1.79
2023-03-16T00:45:49.550Z,1.79
2023-03-16T00:46:51.863Z,1.81
2023-03-16T00:47:54.248Z,1.91
2023-03-16T00:48:56.841Z,1.88
2023-03-16T00:50:01.058Z,1.81
2023-03-16T00:51:06.421Z,1.81
2023-03-16T00:52:14.757Z,1.84
2023-03-16T00:53:17.100Z,1.85
2023-03-16T00:54:20.041Z,1.86
2023-03-16T00:55:22.988Z,1.95
2023-03-16T00:56:25.470Z,1.98
2023-03-16T00:57:30.220Z,2.03
2023-03-16T00:58:35.838Z,2.04
2023-03-16T00:59:38.975Z,2.05
2023-03-16T01:00:41.248Z,2.03
2023-03-16T01:01:43.644Z,2.06
2023-03-16T01:02:45.865Z,2.06
2023-03-16T01:03:48.265Z,2.09
2023-03-16T01:04:52.227Z,2.10
2023-03-16T01:05:54.445Z,2.06
2023-03-16T01:06:56.604Z,2.13
2023-03-16T01:08:02.485Z,2.17
2023-03-16T01:09:05.745Z,2.08
2023-03-16T01:10:09.822Z,2.11
2023-03-16T01:11:17.468Z,2.10
2023-03-16T01:12:20.196Z,2.08
2023-03-16T01:13:22.893Z,2.10
2023-03-16T01:14:25.126Z,2.04
2023-03-16T01:15:27.509Z,2.01
2023-03-16T01:16:30.357Z,2.01
2023-03-16T01:17:35.127Z,2.04
2023-03-16T01:18:37.851Z,2.04
2023-03-16T01:19:42.165Z,1.99
2023-03-16T01:20:50.637Z,1.91
2023-03-16T01:21:53.647Z,1.93
2023-03-16T01:22:56.165Z,1.97
2023-03-16T01:23:58.486Z,1.95
2023-03-16T01:25:01.185Z,1.95
2023-03-16T01:26:03.671Z,1.89
2023-03-16T01:27:06.943Z,1.79
2023-03-16T01:28:09.950Z,1.78
2023-03-16T01:29:14.904Z,1.74
2023-03-16T01:30:17.476Z,1.75
2023-03-16T01:31:20.350Z,1.81
2023-03-16T01:32:23.247Z,1.82
2023-03-16T01:33:28.132Z,1.82
2023-03-16T01:34:32.054Z,1.86
2023-03-16T01:35:35.262Z,1.73
2023-03-16T01:36:38.188Z,1.76
2023-03-16T01:37:42.323Z,1.74
2023-03-16T01:38:54.089Z,1.73
2023-03-16T01:39:57.449Z,1.64
2023-03-16T01:41:01.276Z,1.67
2023-03-16T01:42:03.718Z,1.76
2023-03-16T01:43:07.746Z,1.81
2023-03-16T01:44:20.074Z,1.82
2023-03-16T01:46:14.674Z,1.76
2023-03-16T01:47:20.517Z,1.75
2023-03-16T01:48:26.236Z,1.78
2023-03-16T01:49:36.375Z,1.71
2023-03-16T01:50:38.871Z,1.66
2023-03-16T01:51:52.370Z,1.62
2023-03-16T01:52:56.299Z,1.59
2023-03-16T01:54:36.100Z,1.57
2023-03-16T01:55:41.417Z,1.52
2023-03-16T01:56:55.469Z,1.63
2023-03-16T01:57:57.919Z,1.57
2023-03-16T01:59:05.653Z,1.58
2023-03-16T02:00:20.961Z,1.61
2023-03-16T02:01:52.234Z,1.57
2023-03-16T02:03:00.636Z,1.50
2023-03-16T02:04:39.775Z,1.46
2023-03-16T02:05:48.998Z,1.45
2023-03-16T02:06:55.203Z,1.45
2023-03-16T02:07:58.936Z,1.43
2023-03-16T02:09:02.923Z,1.38
2023-03-16T02:10:07.491Z,1.41
2023-03-16T02:11:10.366Z,1.42
2023-03-16T02:12:27.061Z,1.46
2023-03-16T02:13:34.243Z,1.45
2023-03-16T02:14:37.085Z,1.45
2023-03-16T02:15:39.786Z,1.42
2023-03-16T02:16:42.337Z,1.40
2023-03-16T02:17:46.855Z,1.42
2023-03-16T02:18:51.817Z,1.43
2023-03-16T02:20:19.190Z,1.42
2023-03-16T02:21:40.261Z,1.43
2023-03-16T02:22:48.877Z,1.45
2023-03-16T02:23:52.711Z,1.41
2023-03-16T02:24:56.011Z,1.38
2023-03-16T02:26:29.299Z,1.42
2023-03-16T02:27:48.829Z,1.51
2023-03-16T02:29:23.296Z,1.46
2023-03-16T02:30:26.725Z,1.43
2023-03-16T02:31:35.823Z,1.37
2023-03-16T02:32:40.654Z,1.44
2023-03-16T02:33:44.892Z,1.47
2023-03-16T02:34:47.211Z,1.39
2023-03-16T02:35:50.305Z,1.43
2023-03-16T02:36:53.853Z,1.53
2023-03-16T02:38:00.263Z,1.50
2023-03-16T02:39:06.388Z,1.47
2023-03-16T02:40:24.112Z,1.42
2023-03-16T02:41:29.186Z,1.49
2023-03-16T02:42:34.096Z,1.46
2023-03-16T02:43:40.091Z,1.44
2023-03-16T02:45:00.533Z,1.49
2023-03-16T02:46:08.068Z,1.43
2023-03-16T02:47:29.549Z,1.35
2023-03-16T02:48:49.277Z,1.31
2023-03-16T02:49:51.628Z,1.27
2023-03-16T02:50:54.698Z,1.39
2023-03-16T02:51:57.569Z,1.35
2023-03-16T02:53:00.253Z,1.40
2023-03-16T02:54:03.333Z,1.43
2023-03-16T02:55:09.087Z,1.40
2023-03-16T02:56:11.625Z,1.30
2023-03-16T02:57:13.798Z,1.26
2023-03-16T02:58:17.283Z,1.32
2023-03-16T02:59:19.518Z,1.25
2023-03-16T03:00:22.100Z,1.23
2023-03-16T03:01:26.404Z,1.17
2023-03-16T03:02:29.898Z,1.22
2023-03-16T03:03:34.375Z,1.21
2023-03-16T03:04:36.803Z,1.21
2023-03-16T03:05:41.977Z,1.23
2023-03-16T03:06:44.440Z,1.30
2023-03-16T03:07:47.400Z,1.37
2023-03-16T03:08:49.565Z,1.40
2023-03-16T03:09:53.830Z,1.41
2023-03-16T03:10:56.239Z,1.34
2023-03-16T03:11:59.172Z,1.34
2023-03-16T03:13:01.699Z,1.30
2023-03-16T03:14:04.643Z,1.26
2023-03-16T03:15:08.016Z,1.26
2023-03-16T03:16:18.641Z,1.28
2023-03-16T03:17:20.863Z,1.26
2023-03-16T03:18:25.223Z,1.23
2023-03-16T03:19:28.176Z,1.22
2023-03-16T03:20:30.992Z,1.28
2023-03-16T03:21:33.182Z,1.29
2023-03-16T03:22:36.381Z,1.26
2023-03-16T03:23:38.751Z,1.26
2023-03-16T03:24:43.179Z,1.31
2023-03-16T03:25:45.952Z,1.23
2023-03-16T03:26:48.920Z,1.29
2023-03-16T03:27:55.308Z,1.23
2023-03-16T03:28:58.877Z,1.25
2023-03-16T03:30:01.582Z,1.20
2023-03-16T03:31:04.571Z,1.20
2023-03-16T03:32:07.470Z,1.21
2023-03-16T03:33:10.030Z,1.21
2023-03-16T03:34:12.223Z,1.20
2023-03-16T03:35:15.938Z,1.21
2023-03-16T03:36:18.201Z,1.17
2023-03-16T03:37:21.261Z,1.16
2023-03-16T03:38:25.159Z,1.13
2023-03-16T03:39:27.582Z,1.17
2023-03-16T03:40:30.817Z,1.17
2023-03-16T03:41:37.248Z,1.15
2023-03-16T03:42:42.164Z,1.18
2023-03-16T03:43:44.657Z,1.18
2023-03-16T03:44:51.968Z,1.13
2023-03-16T03:45:58.832Z,1.11
2023-03-16T03:47:01.505Z,1.10
2023-03-16T03:48:03.931Z,1.14
2023-03-16T03:49:06.103Z,1.15
2023-03-16T03:50:12.025Z,1.14
2023-03-16T03:51:24.480Z,1.08
2023-03-16T03:52:37.718Z,1.07
2023-03-16T03:53:39.903Z,1.06
2023-03-16T03:54:53.124Z,1.02
2023-03-16T03:55:55.321Z,1.01
2023-03-16T03:56:57.706Z,1.03
2023-03-16T03:58:00.396Z,0.99
2023-03-16T03:59:02.589Z,1.02
2023-03-16T04:00:31.131Z,1.10
2023-03-16T04:01:33.451Z,1.06
2023-03-16T04:02:36.126Z,1.03
2023-03-16T04:03:39.868Z,1.05
2023-03-16T04:04:44.890Z,1.13
2023-03-16T04:05:48.601Z,1.05
2023-03-16T04:06:51.568Z,1.02
2023-03-16T04:07:57.599Z,0.98
2023-03-16T04:08:59.949Z,0.98
2023-03-16T04:10:06.852Z,1.04
2023-03-16T04:11:14.691Z,1.07
2023-03-16T04:12:16.890Z,1.07
2023-03-16T04:13:19.654Z,1.07
2023-03-16T04:14:21.870Z,1.04
2023-03-16T04:15:24.375Z,1.06
2023-03-16T04:16:40.939Z,1.08
2023-03-16T04:17:43.507Z,1.07
2023-03-16T04:18:46.711Z,1.06
2023-03-16T04:19:49.363Z,0.96
2023-03-16T04:20:55.386Z,0.96
2023-03-16T04:21:59.561Z,1.04
2023-03-16T04:23:02.046Z,1.10
2023-03-16T04:24:05.810Z,1.10
2023-03-16T04:25:12.567Z,1.11
2023-03-16T04:26:16.155Z,1.02
2023-03-16T04:27:21.213Z,0.95
2023-03-16T04:28:26.558Z,0.93
2023-03-16T04:29:29.248Z,0.92
2023-03-16T04:30:33.377Z,0.92
2023-03-16T04:31:47.693Z,0.92
2023-03-16T04:32:52.400Z,0.91
2023-03-16T04:33:56.265Z,0.89
2023-03-16T04:34:59.245Z,0.88
2023-03-16T04:36:13.829Z,0.79
2023-03-16T04:37:16.456Z,0.79
2023-03-16T04:38:19.413Z,0.86
2023-03-16T04:39:31.008Z,0.83
2023-03-16T04:40:33.254Z,0.84
2023-03-16T04:41:43.042Z,0.90
2023-03-16T04:42:51.596Z,0.89
2023-03-16T04:43:55.777Z,0.90
2023-03-16T04:44:59.829Z,0.91
2023-03-16T04:46:04.298Z,0.89
2023-03-16T04:47:07.122Z,0.91
2023-03-16T04:48:13.618Z,0.91
2023-03-16T04:49:16.211Z,0.93
2023-03-16T04:50:20.919Z,0.89
2023-03-16T04:51:27.956Z,0.80
2023-03-16T04:52:49.695Z,0.85
2023-03-16T04:53:52.039Z,0.93
2023-03-16T04:55:00.301Z,0.87
2023-03-16T04:56:02.537Z,0.83
2023-03-16T04:57:05.864Z,0.82
2023-03-16T04:58:19.175Z,0.87
2023-03-16T04:59:24.980Z,0.85
2023-03-16T05:00:35.912Z,0.92
2023-03-16T05:01:43.577Z,0.86
2023-03-16T05:02:47.358Z,0.81
2023-03-16T05:03:49.968Z,0.83
2023-03-16T05:04:53.195Z,0.83
2023-03-16T05:05:55.622Z,0.77
2023-03-16T05:07:00.037Z,0.83
2023-03-16T05:08:08.429Z,0.87
2023-03-16T05:09:14.028Z,0.83
2023-03-16T05:10:19.159Z,0.84
2023-03-16T05:11:22.422Z,0.88
2023-03-16T05:12:31.651Z,0.89
2023-03-16T05:13:38.926Z,0.92
2023-03-16T05:14:41.473Z,0.96
2023-03-16T05:15:53.931Z,0.90
2023-03-16T05:17:03.902Z,0.84
2023-03-16T05:18:06.149Z,0.87
2023-03-16T05:19:08.547Z,0.86
2023-03-16T05:20:15.944Z,0.89
2023-03-16T05:21:23.082Z,0.95
2023-03-16T05:22:36.287Z,0.88
2023-03-16T05:23:47.791Z,1.01
2023-03-16T05:24:50.492Z,1.03
2023-03-16T05:25:52.905Z,1.06
2023-03-16T05:26:57.938Z,0.99
2023-03-16T05:28:02.021Z,1.04
2023-03-16T05:29:10.049Z,0.91
2023-03-16T05:30:13.659Z,0.89
2023-03-16T05:31:16.134Z,0.96
2023-03-16T05:32:24.390Z,0.94
2023-03-16T05:33:26.746Z,0.95
2023-03-16T05:34:36.313Z,0.91
2023-03-16T05:35:38.740Z,0.92
2023-03-16T05:36:45.240Z,0.86
2023-03-16T05:37:51.028Z,0.85
2023-03-16T05:38:55.964Z,0.91
2023-03-16T05:40:19.045Z,0.95
2023-03-16T05:41:28.325Z,0.97
2023-03-16T05:42:38.134Z,0.88
2023-03-16T05:43:40.566Z,0.87
2023-03-16T05:44:44.867Z,0.80
2023-03-16T05:45:55.903Z,0.92
2023-03-16T05:46:58.303Z,0.86
2023-03-16T05:48:00.955Z,0.95
2023-03-16T05:49:04.121Z,1.04
2023-03-16T05:50:11.395Z,0.96
2023-03-16T05:51:17.043Z,1.06
2023-03-16T05:52:19.646Z,1.04
2023-03-16T05:53:28.908Z,1.04
2023-03-16T05:54:36.349Z,1.06
2023-03-16T05:55:38.551Z,1.07
2023-03-16T05:56:43.891Z,1.16
2023-03-16T05:57:46.673Z,1.18
2023-03-16T05:58:49.082Z,1.25
2023-03-16T05:59:52.855Z,1.30
2023-03-16T06:00:59.046Z,1.33
2023-03-16T06:02:04.484Z,1.36
2023-03-16T06:03:07.303Z,1.36
2023-03-16T06:04:11.871Z,1.38
2023-03-16T06:05:17.917Z,1.41
2023-03-16T06:06:25.254Z,1.36
2023-03-16T06:07:37.073Z,1.35
2023-03-16T06:08:39.431Z,1.34
2023-03-16T06:09:44.845Z,1.32
2023-03-16T06:10:50.691Z,1.41
2023-03-16T06:11:54.366Z,1.44
2023-03-16T06:12:57.783Z,1.43
2023-03-16T06:14:01.931Z,1.46
2023-03-16T06:15:07.892Z,1.50
2023-03-16T06:16:13.793Z,1.52
2023-03-16T06:17:16.284Z,1.52
2023-03-16T06:18:18.682Z,1.60
2023-03-16T06:19:21.738Z,1.61
2023-03-16T06:20:28.925Z,1.60
2023-03-16T06:21:31.878Z,1.59
2023-03-16T06:22:42.354Z,1.73
2023-03-16T06:23:44.558Z,1.64
2023-03-16T06:24:47.356Z,1.57
2023-03-16T06:25:54.577Z,1.50
2023-03-16T06:26:59.511Z,1.59
2023-03-16T06:28:08.434Z,1.57
2023-03-16T06:29:10.696Z,1.57
2023-03-16T06:30:15.317Z,1.63
2023-03-16T06:31:17.647Z,1.64
2023-03-16T06:32:22.164Z,1.69
2023-03-16T06:33:24.947Z,1.73
2023-03-16T06:34:27.381Z,1.73
2023-03-16T06:35:31.563Z,1.73
2023-03-16T06:36:45.865Z,1.79
2023-03-16T06:37:48.872Z,1.86
2023-03-16T06:39:18.674Z,1.88
2023-03-16T06:40:23.833Z,1.82
2023-03-16T06:41:26.060Z,1.93
2023-03-16T06:42:28.652Z,1.85
2023-03-16T06:43:30.839Z,1.88
2023-03-16T06:44:33.096Z,1.96
2023-03-16T06:45:43.618Z,2.03
2023-03-16T06:46:45.916Z,2.04
2023-03-16T06:47:49.170Z,2.05
2023-03-16T06:48:51.367Z,2.08
2023-03-16T06:49:55.287Z,2.07
2023-03-16T06:51:00.766Z,2.15
2023-03-16T06:52:04.903Z,2.23
2023-03-16T06:53:07.157Z,2.27
2023-03-16T06:54:11.802Z,2.27
2023-03-16T06:55:15.597Z,2.41
2023-03-16T06:56:21.781Z,2.43
2023-03-16T06:57:25.950Z,2.45
2023-03-16T06:58:28.165Z,2.54
2023-03-16T06:59:30.387Z,2.57
2023-03-16T07:00:34.158Z,2.62
2023-03-16T07:01:36.764Z,2.70
2023-03-16T07:02:40.494Z,2.67
2023-03-16T07:03:43.799Z,2.73
2023-03-16T07:05:00.036Z,2.81
2023-03-16T07:06:03.221Z,2.72
2023-03-16T07:07:06.615Z,2.73
2023-03-16T07:08:10.172Z,2.81
2023-03-16T07:09:12.562Z,2.83
2023-03-16T07:10:17.510Z,2.87
2023-03-16T07:11:20.370Z,2.93
2023-03-16T07:12:22.742Z,2.96
2023-03-16T07:13:24.971Z,2.97
2023-03-16T07:14:27.347Z,3.16
2023-03-16T07:15:31.905Z,3.52
2023-03-16T07:16:35.342Z,3.97
2023-03-16T07:17:42.800Z,4.47
2023-03-16T07:18:45.277Z,4.90
2023-03-16T07:19:50.267Z,5.39
2023-03-16T07:20:55.720Z,5.76
2023-03-16T07:22:02.892Z,6.12
2023-03-16T07:23:08.676Z,6.35
2023-03-16T07:24:12.861Z,6.56
2023-03-16T07:25:16.453Z,6.76
2023-03-16T07:26:24.350Z,6.98
2023-03-16T07:27:31.268Z,7.24
2023-03-16T07:28:35.795Z,7.29
2023-03-16T07:29:40.570Z,7.46
2023-03-16T07:30:53.315Z,7.43
2023-03-16T07:32:04.045Z,7.29
2023-03-16T07:33:12.191Z,7.35
2023-03-16T07:34:14.900Z,7.45
2023-03-16T07:35:21.977Z,7.66
2023-03-16T07:36:24.847Z,7.84
2023-03-16T07:37:32.513Z,8.08
2023-03-16T07:38:36.413Z,8.34
2023-03-16T07:39:38.871Z,8.54
2023-03-16T07:40:46.254Z,8.37
2023-03-16T07:41:54.870Z,7.90
2023-03-16T07:43:13.251Z,8.07
2023-03-16T07:44:24.265Z,8.33
2023-03-16T07:45:30.039Z,8.48
2023-03-16T07:46:33.129Z,8.47
2023-03-16T07:47:36.447Z,8.60
2023-03-16T07:48:52.235Z,8.82
2023-03-16T07:49:54.413Z,8.85
2023-03-16T07:50:56.712Z,8.93
2023-03-16T07:51:59.966Z,9.02
2023-03-16T07:53:10.744Z,9.27
2023-03-16T07:54:15.709Z,9.52
2023-03-16T07:55:18.159Z,9.73
2023-03-16T07:56:21.601Z,9.95
2023-03-16T07:57:27.764Z,10.13
2023-03-16T07:58:30.267Z,10.26
2023-03-16T07:59:32.697Z,10.08
2023-03-16T08:00:36.482Z,10.15
2023-03-16T08:01:39.043Z,10.22
2023-03-16T08:02:42.104Z,10.25
2023-03-16T08:03:47.585Z,10.07
2023-03-16T08:04:49.964Z,9.79
2023-03-16T08:05:54.112Z,9.76
2023-03-16T08:07:00.238Z,9.75
2023-03-16T08:08:09.755Z,9.77
2023-03-16T08:09:13.852Z,10.09
2023-03-16T08:10:17.591Z,10.23
2023-03-16T08:11:31.910Z,10.29
2023-03-16T08:12:38.969Z,10.05
2023-03-16T08:13:44.027Z,9.92
2023-03-16T08:14:47.647Z,10.12
2023-03-16T08:16:10.928Z,10.45
2023-03-16T08:17:15.222Z,10.48
2023-03-16T08:18:18.429Z,10.55
2023-03-16T08:19:21.993Z,10.59
2023-03-16T08:20:26.058Z,10.70
2023-03-16T08:21:30.488Z,10.94
2023-03-16T08:22:32.752Z,11.09
2023-03-16T08:23:36.190Z,11.27
2023-03-16T08:24:39.144Z,11.43
2023-03-16T08:25:44.215Z,11.72
2023-03-16T08:26:50.875Z,11.71
2023-03-16T08:27:53.178Z,11.86
2023-03-16T08:28:55.905Z,12.03
2023-03-16T08:30:04.632Z,11.98
2023-03-16T08:31:09.205Z,11.60
2023-03-16T08:32:18.330Z,11.62
2023-03-16T08:33:23.429Z,11.80
2023-03-16T08:34:28.838Z,11.84
2023-03-16T08:35:31.088Z,11.53
2023-03-16T08:36:33.751Z,11.32
2023-03-16T08:37:36.907Z,11.05
2023-03-16T08:38:45.395Z,10.79
2023-03-16T08:39:51.559Z,11.13
2023-03-16T08:40:54.258Z,11.36
2023-03-16T08:41:58.036Z,11.52
2023-03-16T08:43:09.030Z,11.51
2023-03-16T08:44:11.344Z,11.78
2023-03-16T08:45:14.896Z,11.87
2023-03-16T08:46:24.343Z,12.06
2023-03-16T08:47:32.946Z,12.35
2023-03-16T08:48:36.287Z,12.23
2023-03-16T08:49:38.532Z,12.07
2023-03-16T08:50:46.451Z,11.89
2023-03-16T08:51:48.777Z,11.75
2023-03-16T08:52:51.169Z,11.56
2023-03-16T08:53:54.282Z,11.49
2023-03-16T08:55:03.469Z,11.41
2023-03-16T08:56:12.372Z,11.36
2023-03-16T08:57:14.582Z,11.52
2023-03-16T08:58:16.981Z,11.51
2023-03-16T08:59:29.089Z,11.72
2023-03-16T09:00:32.161Z,11.84
2023-03-16T09:01:34.654Z,12.04
2023-03-16T09:02:38.865Z,12.18
2023-03-16T09:03:42.416Z,12.37
2023-03-16T09:04:46.108Z,12.25
2023-03-16T09:05:49.514Z,12.10
2023-03-16T09:07:05.830Z,11.97
2023-03-16T09:08:10.442Z,11.71
2023-03-16T09:09:12.638Z,11.23
2023-03-16T09:10:16.269Z,11.15
2023-03-16T09:11:19.964Z,11.18
2023-03-16T09:12:23.460Z,11.31
2023-03-16T09:13:25.944Z,11.31
2023-03-16T09:14:28.536Z,11.51
2023-03-16T09:15:31.483Z,11.52
2023-03-16T09:16:33.943Z,11.45
2023-03-16T09:17:36.784Z,11.62
2023-03-16T09:18:40.098Z,11.83
2023-03-16T09:19:52.155Z,11.94
2023-03-16T09:21:00.122Z,12.13
2023-03-16T09:22:02.741Z,12.29
2023-03-16T09:23:05.001Z,12.23
2023-03-16T09:24:08.893Z,12.27
2023-03-16T09:25:11.322Z,12.30
2023-03-16T09:26:15.197Z,12.13
2023-03-16T09:27:18.099Z,12.17
2023-03-16T09:28:22.112Z,12.18
2023-03-16T09:29:24.893Z,12.19
2023-03-16T09:30:28.279Z,12.33
2023-03-16T09:31:30.832Z,12.32
2023-03-16T09:32:33.739Z,12.33
2023-03-16T09:33:36.454Z,12.40
2023-03-16T09:34:39.223Z,12.10
2023-03-16T09:35:41.617Z,12.20
2023-03-16T09:36:43.896Z,12.13
2023-03-16T09:38:04.687Z,12.24
2023-03-16T09:39:08.003Z,12.28
2023-03-16T09:40:20.834Z,12.19
2023-03-16T09:41:31.662Z,12.08
2023-03-16T09:42:39.120Z,12.11
2023-03-16T09:44:02.877Z,12.21
2023-03-16T09:45:23.959Z,12.32
2023-03-16T09:46:39.995Z,12.14
2023-03-16T09:47:45.336Z,11.91
2023-03-16T09:48:48.278Z,11.95
2023-03-16T09:49:52.434Z,11.91
2023-03-16T09:50:58.660Z,11.97
2023-03-16T09:52:21.237Z,12.11
2023-03-16T09:53:32.390Z,12.12
2023-03-16T09:54:46.279Z,12.03
2023-03-16T09:55:53.775Z,11.90
2023-03-16T09:56:58.074Z,11.95
2023-03-16T09:58:01.948Z,11.99
2023-03-16T09:59:12.123Z,11.83
2023-03-16T10:00:17.647Z,11.68
2023-03-16T10:01:51.133Z,11.79
2023-03-16T10:02:59.651Z,11.80
2023-03-16T10:04:21.679Z,11.70
2023-03-16T10:05:24.871Z,11.62
2023-03-16T10:06:28.115Z,11.59
2023-03-16T10:07:42.599Z,11.51
2023-03-16T10:09:18.246Z,11.43
2023-03-16T10:10:25.619Z,11.48
2023-03-16T10:11:41.396Z,11.59
2023-03-16T10:12:47.634Z,11.47
2023-03-16T10:14:29.191Z,11.32
2023-03-16T10:15:35.621Z,11.32
2023-03-16T10:17:08.495Z,11.36
2023-03-16T10:18:18.113Z,11.21
2023-03-16T10:19:33.278Z,11.01
2023-03-16T10:20:36.618Z,10.92
2023-03-16T10:21:41.126Z,11.07
2023-03-16T10:22:46.959Z,11.19
2023-03-16T10:23:49.833Z,11.20
2023-03-16T10:25:13.091Z,10.85
2023-03-16T10:26:28.659Z,10.66
2023-03-16T10:27:33.682Z,10.67
2023-03-16T10:28:37.732Z,10.67
2023-03-16T10:29:40.120Z,10.53
2023-03-16T10:30:43.030Z,10.62
2023-03-16T10:31:46.377Z,10.60
2023-03-16T10:32:49.510Z,10.46
2023-03-16T10:33:58.439Z,10.54
2023-03-16T10:35:06.957Z,10.78
2023-03-16T10:36:39.062Z,10.82
2023-03-16T10:37:41.341Z,10.86
2023-03-16T10:38:47.031Z,10.88
2023-03-16T10:39:49.513Z,10.83
2023-03-16T10:40:53.054Z,10.71
2023-03-16T10:41:57.444Z,10.71
2023-03-16T10:43:16.427Z,10.71
2023-03-16T10:44:40.543Z,10.67
2023-03-16T10:45:43.238Z,10.57
2023-03-16T10:46:53.406Z,10.49
2023-03-16T10:48:08.463Z,10.35
2023-03-16T10:49:44.346Z,10.48
2023-03-16T10:50:53.897Z,10.33
2023-03-16T10:52:00.764Z,10.23
2023-03-16T10:53:03.448Z,10.19
2023-03-16T10:54:14.817Z,10.20
2023-03-16T10:55:23.222Z,10.13
2023-03-16T10:56:25.855Z,9.94
2023-03-16T10:57:33.951Z,9.84
2023-03-16T10:58:43.210Z,9.76
2023-03-16T10:59:49.643Z,9.77
2023-03-16T11:00:52.091Z,9.70
2023-03-16T11:01:55.026Z,9.80
2023-03-16T11:02:59.755Z,9.96
2023-03-16T11:04:02.675Z,9.93
2023-03-16T11:05:34.870Z,9.94
2023-03-16T11:06:37.055Z,9.84
2023-03-16T11:08:20.114Z,9.86
2023-03-16T11:09:43.116Z,9.62
2023-03-16T11:10:55.713Z,9.46
2023-03-16T11:11:58.755Z,9.37
2023-03-16T11:13:12.719Z,9.47
2023-03-16T11:14:15.883Z,9.58
2023-03-16T11:15:25.875Z,9.64
2023-03-16T11:16:37.321Z,9.67
2023-03-16T11:17:47.200Z,9.77
2023-03-16T11:18:58.797Z,9.85
2023-03-16T11:20:12.292Z,9.67
2023-03-16T11:21:17.299Z,9.62
2023-03-16T11:22:24.349Z,9.53
2023-03-16T11:23:33.596Z,9.59
2023-03-16T11:25:07.292Z,9.35
2023-03-16T11:26:21.269Z,9.47
2023-03-16T11:27:45.402Z,9.48
2023-03-16T11:29:01.752Z,9.53
2023-03-16T11:30:22.096Z,9.70
2023-03-16T11:31:33.178Z,9.80
2023-03-16T11:32:38.559Z,9.93
2023-03-16T11:33:40.760Z,9.91
2023-03-16T11:34:44.570Z,9.97
2023-03-16T11:36:01.087Z,10.12
2023-03-16T11:37:21.978Z,10.27
2023-03-16T11:39:03.863Z,10.14
2023-03-16T11:40:49.369Z,10.01
2023-03-16T11:42:14.258Z,10.16
2023-03-16T11:43:42.655Z,10.28
2023-03-16T11:44:56.947Z,10.32
2023-03-16T11:46:08.981Z,10.29
2023-03-16T11:47:26.478Z,10.33
2023-03-16T11:48:44.959Z,10.30
2023-03-16T11:50:05.694Z,10.20
2023-03-16T11:51:41.169Z,10.29
2023-03-16T11:53:00.415Z,10.49
2023-03-16T11:54:30.455Z,10.53
2023-03-16T11:55:47.752Z,10.59
2023-03-16T11:56:55.460Z,10.55
2023-03-16T11:58:17.261Z,10.49
2023-03-16T11:59:37.800Z,10.56
2023-03-16T12:00:52.442Z,10.57
2023-03-16T12:02:24.763Z,10.70
2023-03-16T12:03:36.848Z,10.71
2023-03-16T12:05:16.867Z,10.73
2023-03-16T12:06:34.400Z,10.61
2023-03-16T12:07:46.427Z,10.55
2023-03-16T12:09:04.708Z,10.50
2023-03-16T12:10:18.812Z,10.40
2023-03-16T12:11:28.703Z,10.33
2023-03-16T12:13:06.761Z,10.14
2023-03-16T12:14:24.961Z,10.21
2023-03-16T12:15:36.119Z,10.17
2023-03-16T12:16:57.475Z,10.28
2023-03-16T12:18:15.302Z,10.28
2023-03-16T12:19:30.744Z,10.35
2023-03-16T12:20:43.645Z,10.31
2023-03-16T12:21:49.174Z,10.19
2023-03-16T12:23:05.955Z,10.19
2023-03-16T12:24:19.429Z,9.88
2023-03-16T12:25:33.184Z,9.67
2023-03-16T12:26:42.505Z,9.82
2023-03-16T12:27:46.274Z,9.69
2023-03-16T12:28:50.561Z,9.83
2023-03-16T12:30:01.796Z,10.10
2023-03-16T12:31:37.525Z,10.38
2023-03-16T12:32:53.538Z,10.63
2023-03-16T12:34:24.326Z,10.91
2023-03-16T12:35:51.738Z,10.93
2023-03-16T12:37:13.059Z,10.94
2023-03-16T12:38:37.425Z,10.99
2023-03-16T12:39:58.172Z,11.04
2023-03-16T12:41:07.455Z,11.08
2023-03-16T12:42:12.597Z,11.05
2023-03-16T12:43:35.586Z,11.07
2023-03-16T12:44:47.839Z,11.14
2023-03-16T12:46:14.400Z,10.94
2023-03-16T12:47:28.531Z,10.89
2023-03-16T12:48:37.085Z,10.99
2023-03-16T12:49:39.941Z,10.97
2023-03-16T12:50:51.378Z,11.19
2023-03-16T12:52:20.394Z,11.22
2023-03-16T12:53:28.616Z,11.19
2023-03-16T12:54:31.187Z,11.01
2023-03-16T12:55:33.445Z,11.19
2023-03-16T12:56:44.511Z,11.36
2023-03-16T12:57:49.721Z,11.35
2023-03-16T12:58:56.732Z,11.44
2023-03-16T13:00:01.142Z,11.41
2023-03-16T13:01:10.722Z,11.33
2023-03-16T13:02:19.515Z,11.44
2023-03-16T13:03:23.361Z,11.41
2023-03-16T13:04:35.765Z,11.43
2023-03-16T13:05:45.744Z,11.48
2023-03-16T13:06:51.617Z,11.52
2023-03-16T13:08:10.596Z,11.52
2023-03-16T13:09:19.278Z,11.50
2023-03-16T13:10:22.086Z,11.24
2023-03-16T13:11:25.530Z,10.79
2023-03-16T13:12:36.812Z,10.66
2023-03-16T13:13:58.242Z,10.56
2023-03-16T13:15:00.643Z,10.61
2023-03-16T13:16:10.111Z,10.72
2023-03-16T13:17:18.651Z,10.84
2023-03-16T13:18:23.231Z,10.96
2023-03-16T13:19:30.468Z,10.96
2023-03-16T13:20:35.752Z,11.01
2023-03-16T13:21:41.070Z,10.91
2023-03-16T13:22:51.222Z,11.09
2023-03-16T13:24:01.532Z,11.12
2023-03-16T13:25:18.761Z,11.27
2023-03-16T13:26:43.330Z,11.50
2023-03-16T13:27:52.596Z,11.38
2023-03-16T13:28:55.403Z,10.69
2023-03-16T13:30:15.719Z,10.74
2023-03-16T13:31:21.578Z,10.95
2023-03-16T13:32:27.322Z,10.90
2023-03-16T13:33:38.197Z,10.84
2023-03-16T13:34:48.449Z,10.54
2023-03-16T13:35:52.890Z,10.41
2023-03-16T13:36:58.209Z,10.46
2023-03-16T13:38:05.781Z,10.21
2023-03-16T13:39:20.836Z,10.38
2023-03-16T13:40:30.093Z,10.68
2023-03-16T13:41:32.868Z,10.37
2023-03-16T13:42:36.660Z,10.35
2023-03-16T13:43:43.788Z,10.13
2023-03-16T13:44:46.712Z,10.32
2023-03-16T13:45:48.961Z,10.56
2023-03-16T13:46:51.392Z,10.73
2023-03-16T13:47:53.709Z,10.82
2023-03-16T13:49:00.748Z,10.83
2023-03-16T13:50:03.286Z,10.86
2023-03-16T13:51:15.675Z,10.87
2023-03-16T13:52:31.792Z,11.04
2023-03-16T13:53:34.164Z,10.76
2023-03-16T13:54:37.207Z,10.54
2023-03-16T13:55:40.557Z,10.78
2023-03-16T13:56:43.217Z,10.95
2023-03-16T13:57:46.458Z,11.11
2023-03-16T13:58:51.748Z,11.19
2023-03-16T14:00:05.946Z,11.25
2023-03-16T14:01:26.092Z,11.19
2023-03-16T14:02:29.320Z,11.18
2023-03-16T14:03:39.281Z,11.22
2023-03-16T14:04:43.414Z,11.25
2023-03-16T14:05:46.151Z,11.33
2023-03-16T14:06:57.043Z,11.30
2023-03-16T14:08:00.839Z,11.16
2023-03-16T14:09:04.942Z,11.09
2023-03-16T14:10:09.003Z,11.09
2023-03-16T14:11:11.274Z,11.04
2023-03-16T14:12:14.732Z,11.05
2023-03-16T14:13:29.613Z,10.81
2023-03-16T14:14:37.104Z,10.69
2023-03-16T14:15:39.513Z,10.91
2023-03-16T14:16:42.752Z,10.98
2023-03-16T14:17:44.712Z,10.92
2023-03-16T14:18:48.597Z,10.80
2023-03-16T14:19:51.884Z,10.72
2023-03-16T14:20:54.857Z,10.45
2023-03-16T14:21:56.886Z,10.40
2023-03-16T14:23:00.031Z,10.50
2023-03-16T14:24:04.661Z,10.60
2023-03-16T14:25:06.840Z,10.61
2023-03-16T14:26:16.545Z,10.62
2023-03-16T14:27:25.537Z,10.71
2023-03-16T14:28:32.382Z,10.66
2023-03-16T14:29:34.892Z,10.67
2023-03-16T14:30:37.225Z,10.37
2023-03-16T14:31:40.947Z,10.31
2023-03-16T14:32:54.252Z,10.40
2023-03-16T14:34:00.424Z,10.22
2023-03-16T14:35:11.058Z,10.37
2023-03-16T14:36:14.245Z,10.64
2023-03-16T14:37:20.167Z,10.62
2023-03-16T14:38:28.794Z,10.57
2023-03-16T14:39:30.799Z,10.67
2023-03-16T14:40:33.224Z,10.70
2023-03-16T14:41:35.264Z,10.71
2023-03-16T14:42:39.249Z,10.57
2023-03-16T14:43:48.764Z,10.55
2023-03-16T14:44:51.010Z,10.64
2023-03-16T14:45:54.543Z,10.63